Time;durP1;ratioP1;P1;durP2;ratioP2;P2;SDS_P1;SDS_P2;PMS_P1;PMS_P2;Temp;Humidity;BMP_temperature;BMP_pressure;BME280_temperature;BME280_humidity;BME280_pressure;Samples;Min_cycle;Max_cycle;Signal;HPM_P1;HPM_P2
2021/04/01 00:00:49;;;;;;;17.30;11.90;;;;;;;22.66;39.11;99817.15;1775767;79;21195;-14
2021/04/01 00:03:17;;;;;;;20.52;11.48;;;;;;;22.65;39.13;99816.80;1803132;79;21282;-16
2021/04/01 00:05:45;;;;;;;18.82;11.97;;;;;;;22.60;39.39;99811.30;1771156;79;21113;-15
2021/04/01 00:08:13;;;;;;;23.35;12.23;;;;;;;22.61;39.59;99806.78;1753229;79;21157;-14
2021/04/01 00:10:44;;;;;;;15.93;10.60;;;;;;;22.68;39.13;99806.67;1798853;78;21176;-16
2021/04/01 00:13:12;;;;;;;17.48;11.80;;;;;;;22.69;38.90;99802.16;1731970;81;21207;-13
2021/04/01 00:15:41;;;;;;;16.82;11.63;;;;;;;22.64;38.84;99805.20;1790618;78;21142;-15
2021/04/01 00:18:11;;;;;;;15.95;11.25;;;;;;;22.60;38.96;99799.23;1755379;79;21180;-15
2021/04/01 00:20:41;;;;;;;16.40;11.95;;;;;;;22.57;39.01;99802.16;1778114;78;21144;-16
2021/04/01 00:23:09;;;;;;;19.62;11.73;;;;;;;22.54;39.03;99794.35;1773940;79;21177;-15
2021/04/01 00:25:37;;;;;;;17.12;11.83;;;;;;;22.51;39.10;99786.58;1763326;79;21173;-16
2021/04/01 00:28:06;;;;;;;17.87;11.40;;;;;;;22.53;39.27;99787.30;1778119;78;21159;-16
2021/04/01 00:30:34;;;;;;;15.65;11.40;;;;;;;22.57;38.80;99775.34;1778254;79;21452;-16
2021/04/01 00:33:02;;;;;;;17.95;12.03;;;;;;;22.58;38.92;99776.22;1757456;79;21232;-15
2021/04/01 00:35:30;;;;;;;21.85;11.35;;;;;;;22.58;38.50;99770.36;1791314;78;21170;-16
2021/04/01 00:37:59;;;;;;;16.77;11.55;;;;;;;22.54;38.49;99768.88;1771561;79;21145;-15
2021/04/01 00:40:27;;;;;;;17.48;11.68;;;;;;;22.49;38.64;99769.73;1793303;78;21196;-15
2021/04/01 00:42:54;;;;;;;17.65;11.30;;;;;;;22.46;38.52;99767.33;1774280;78;21169;-15
2021/04/01 00:45:22;;;;;;;16.57;11.88;;;;;;;22.39;38.81;99758.05;1778544;79;21081;-15
2021/04/01 00:47:51;;;;;;;17.37;11.22;;;;;;;22.36;38.78;99755.61;1765225;79;21158;-15
2021/04/01 00:50:24;;;;;;;15.25;11.63;;;;;;;22.32;38.64;99752.83;1765316;79;21597;-17
2021/04/01 00:52:52;;;;;;;22.13;11.70;;;;;;;22.26;38.78;99759.01;1731544;81;21166;-15
2021/04/01 00:55:20;;;;;;;18.77;12.20;;;;;;;22.24;38.78;99754.73;1760843;81;21073;-16
2021/04/01 00:57:52;;;;;;;17.52;12.03;;;;;;;22.23;38.88;99750.36;1732377;80;21117;-14
2021/04/01 01:00:23;;;;;;;18.45;12.03;;;;;;;22.25;39.00;99751.09;1693286;83;21173;-13
2021/04/01 01:02:51;;;;;;;15.75;11.43;;;;;;;22.30;38.76;99749.42;1751451;81;21132;-15
2021/04/01 01:05:19;;;;;;;16.17;11.08;;;;;;;22.30;38.75;99749.42;1719833;82;22184;-14
2021/04/01 01:07:47;;;;;;;15.55;11.00;;;;;;;22.30;38.47;99739.54;1733928;82;21170;-15
2021/04/01 01:10:22;;;;;;;19.23;11.85;;;;;;;22.28;38.63;99743.30;1776704;79;21577;-14
2021/04/01 01:12:50;;;;;;;15.48;10.72;;;;;;;22.25;38.91;99733.17;1787892;78;21098;-14
2021/04/01 01:15:17;;;;;;;18.50;11.60;;;;;;;22.28;38.90;99733.92;1766605;78;21149;-15
2021/04/01 01:17:45;;;;;;;14.68;10.53;;;;;;;22.31;38.96;99732.34;1785989;78;21188;-16
2021/04/01 01:20:15;;;;;;;20.12;11.18;;;;;;;22.36;38.89;99728.80;1746068;81;21541;-14
2021/04/01 01:22:44;;;;;;;18.52;10.48;;;;;;;22.42;38.82;99732.34;1749077;81;21580;-14
2021/04/01 01:25:13;;;;;;;15.18;10.70;;;;;;;22.45;38.78;99728.08;1767778;78;21141;-14
2021/04/01 01:27:41;;;;;;;18.35;11.15;;;;;;;22.48;38.65;99735.88;1777649;79;21583;-13
2021/04/01 01:30:15;;;;;;;15.28;10.80;;;;;;;22.46;38.65;99728.45;1770890;78;22110;-14
2021/04/01 01:32:45;;;;;;;16.73;10.68;;;;;;;22.45;38.75;99729.42;1783221;79;21149;-13
2021/04/01 01:35:29;;;;;;;20.48;10.75;;;;;;;22.42;38.82;99724.30;1791837;78;21178;-15
2021/04/01 01:37:59;;;;;;;16.12;10.38;;;;;;;22.38;39.08;99728.22;1780602;78;21185;-15
2021/04/01 01:40:28;;;;;;;12.63;10.25;;;;;;;22.36;39.17;99717.61;1784385;78;21157;-16
2021/04/01 01:42:58;;;;;;;14.80;10.85;;;;;;;22.36;39.16;99723.44;1747273;80;21467;-16
2021/04/01 01:45:29;;;;;;;17.73;11.20;;;;;;;22.34;39.31;99713.34;1785885;78;21188;-14
2021/04/01 01:47:57;;;;;;;18.95;10.72;;;;;;;22.30;39.25;99713.23;1775654;79;21188;-15
2021/04/01 01:50:29;;;;;;;16.75;10.15;;;;;;;22.26;39.50;99711.26;1793317;79;21125;-15
2021/04/01 01:52:56;;;;;;;16.85;11.35;;;;;;;22.24;39.51;99710.50;1779493;78;21170;-14
2021/04/01 01:55:24;;;;;;;17.75;11.15;;;;;;;22.20;39.34;99704.55;1790674;78;21197;-15
2021/04/01 01:57:51;;;;;;;14.63;11.25;;;;;;;22.15;39.48;99696.02;1771215;79;21074;-16
2021/04/01 02:00:39;;;;;;;17.95;11.28;;;;;;;22.13;39.45;99700.66;1790930;79;21545;-17
2021/04/01 02:03:07;;;;;;;17.75;10.10;;;;;;;22.12;39.71;99701.63;1744505;80;21205;-15
2021/04/01 02:05:37;;;;;;;17.20;10.60;;;;;;;22.11;39.80;99697.72;1767389;78;21117;-16
2021/04/01 02:08:06;;;;;;;18.27;10.63;;;;;;;22.12;39.49;99698.94;1785221;79;21256;-18
2021/04/01 02:10:44;;;;;;;14.73;9.78;;;;;;;22.11;39.71;99699.06;1751336;79;21125;-15
2021/04/01 02:13:15;;;;;;;16.27;10.25;;;;;;;22.11;39.63;99698.59;1787447;78;21145;-16
2021/04/01 02:15:44;;;;;;;14.73;10.32;;;;;;;22.08;39.52;99697.00;1721004;81;21162;-15
2021/04/01 02:18:22;;;;;;;17.15;10.45;;;;;;;22.07;39.61;99692.63;1724041;82;21157;-15
2021/04/01 02:20:51;;;;;;;17.62;11.15;;;;;;;22.07;39.54;99689.95;1795160;78;21180;-16
2021/04/01 02:23:22;;;;;;;19.15;11.30;;;;;;;22.08;39.59;99698.84;1753081;79;21106;-16
2021/04/01 02:25:51;;;;;;;15.08;10.40;;;;;;;22.08;39.40;99696.16;1795408;79;21648;-15
2021/04/01 02:28:21;;;;;;;18.87;10.80;;;;;;;22.07;39.75;99694.44;1767690;79;21576;-16
2021/04/01 02:30:53;;;;;;;16.65;11.00;;;;;;;22.08;39.73;99690.80;1775710;78;21137;-15
2021/04/01 02:33:23;;;;;;;14.73;10.05;;;;;;;22.12;39.63;99684.20;1767600;79;21437;-16
2021/04/01 02:35:51;;;;;;;14.15;10.55;;;;;;;22.15;39.43;99687.98;1758603;81;21137;-16
2021/04/01 02:38:19;;;;;;;14.98;10.30;;;;;;;22.14;39.21;99684.95;1769192;78;21166;-15
2021/04/01 02:40:47;;;;;;;15.60;9.83;;;;;;;22.15;39.29;99687.98;1757426;79;21204;-16
2021/04/01 02:43:36;;;;;;;15.03;10.45;;;;;;;22.14;39.35;99686.30;1758831;80;21588;-16
2021/04/01 02:45:44;;;;;;;14.20;10.13;;;;;;;22.15;39.23;99685.80;1771429;77;22323;-15
2021/04/01 02:48:12;;;;;;;15.35;10.40;;;;;;;22.12;39.23;99681.52;1790200;78;21193;-16
2021/04/01 02:50:42;;;;;;;16.82;10.70;;;;;;;22.10;39.26;99678.12;1773940;79;21112;-16
2021/04/01 02:53:10;;;;;;;13.95;9.98;;;;;;;22.10;39.15;99684.82;1759343;80;21122;-16
2021/04/01 02:55:37;;;;;;;15.03;9.45;;;;;;;22.06;39.17;99682.04;1780836;79;21176;-15
2021/04/01 02:58:05;;;;;;;14.23;10.45;;;;;;;22.03;39.38;99680.94;1765527;80;21136;-16
2021/04/01 03:00:34;;;;;;;13.08;10.45;;;;;;;22.02;39.41;99676.54;1777583;79;21486;-15
2021/04/01 03:05:39;;;;;;;16.67;10.45;;;;;;;21.98;39.21;99677.77;1798397;79;21168;-15
2021/04/01 03:08:07;;;;;;;17.65;10.48;;;;;;;21.94;39.39;99674.49;1758558;79;21191;-14
2021/04/01 03:10:34;;;;;;;15.65;10.65;;;;;;;21.95;39.47;99676.17;1787692;79;21190;-17
2021/04/01 03:13:02;;;;;;;17.12;10.55;;;;;;;21.96;39.33;99673.87;1781219;77;21211;-15
2021/04/01 03:15:30;;;;;;;13.43;9.23;;;;;;;21.96;39.40;99671.20;1790755;79;21124;-15
2021/04/01 03:17:59;;;;;;;15.55;10.28;;;;;;;21.96;39.46;99665.84;1761652;79;21153;-16
2021/04/01 03:20:26;;;;;;;17.90;10.48;;;;;;;21.96;39.37;99673.03;1755431;78;21172;-17
2021/04/01 03:22:53;;;;;;;15.95;9.55;;;;;;;21.96;39.31;99671.69;1776425;79;21199;-16
2021/04/01 03:25:21;;;;;;;18.27;9.65;;;;;;;21.94;39.35;99667.80;1776302;79;21070;-15
2021/04/01 03:27:48;;;;;;;29.42;10.82;;;;;;;21.92;39.63;99667.53;1778327;79;21156;-17
2021/04/01 03:30:18;;;;;;;17.62;9.08;;;;;;;21.93;39.64;99666.58;1786681;79;21157;-17
2021/04/01 03:32:47;;;;;;;21.90;10.00;;;;;;;21.94;39.50;99669.13;1756781;79;21564;-17
2021/04/01 03:35:18;;;;;;;15.50;9.83;;;;;;;21.93;39.48;99663.39;1790920;79;22233;-16
2021/04/01 03:37:47;;;;;;;20.32;10.30;;;;;;;21.89;39.38;99661.45;1755050;79;21563;-16
2021/04/01 03:40:15;;;;;;;15.98;9.50;;;;;;;21.87;39.70;99658.05;1763893;79;21133;-14
2021/04/01 03:42:42;;;;;;;14.55;9.13;;;;;;;21.88;39.61;99661.08;1792575;78;21185;-14
2021/04/01 03:45:12;;;;;;;13.25;9.43;;;;;;;21.87;39.48;99662.07;1801869;79;21118;-14
2021/04/01 03:47:39;;;;;;;14.40;9.55;;;;;;;21.86;39.43;99660.35;1743268;81;21218;-17
2021/04/01 03:50:10;;;;;;;25.62;9.55;;;;;;;21.84;39.94;99656.95;1776172;78;21173;-14
2021/04/01 03:52:38;;;;;;;14.00;8.55;;;;;;;21.85;39.92;99657.80;1788098;78;21164;-17
2021/04/01 03:57:40;;;;;;;15.08;9.23;;;;;;;21.96;39.89;99658.30;1737217;80;21145;-14
2021/04/01 04:00:22;;;;;;;13.00;8.83;;;;;;;21.99;39.75;99662.92;1777888;79;21212;-15
2021/04/01 04:05:38;;;;;;;14.95;8.95;;;;;;;22.09;39.70;99653.66;1780802;78;21675;-18
2021/04/01 04:13:26;;;;;;;12.65;9.33;;;;;;;22.21;39.34;99645.12;1781401;79;21086;-14
2021/04/01 04:15:53;;;;;;;12.37;9.10;;;;;;;22.26;39.28;99637.05;1783683;78;21248;-14
2021/04/01 04:18:21;;;;;;;15.03;8.78;;;;;;;22.31;39.17;99630.48;1760686;79;21128;-17
2021/04/01 04:20:48;;;;;;;13.88;9.75;;;;;;;22.35;39.11;99630.62;1782009;77;21117;-15
2021/04/01 04:23:17;;;;;;;12.63;9.08;;;;;;;22.39;38.97;99624.01;1788249;77;21140;-14
2021/04/01 04:25:45;;;;;;;15.23;9.35;;;;;;;22.47;38.83;99626.91;1781028;77;21208;-14
2021/04/01 04:28:24;;;;;;;12.13;8.78;;;;;;;22.54;38.69;99632.12;1790893;78;21276;-15
2021/04/01 04:30:48;;;;;;;13.43;8.35;;;;;;;22.59;38.51;99625.92;1802299;79;21042;-17
2021/04/01 04:33:15;;;;;;;11.30;8.25;;;;;;;22.67;38.62;99619.06;1758623;78;21153;-14
2021/04/01 04:35:43;;;;;;;20.43;8.88;;;;;;;22.74;38.52;99619.73;1786967;77;21161;-14
2021/04/01 04:38:10;;;;;;;11.53;8.68;;;;;;;22.82;38.39;99618.61;1759526;79;21149;-20
2021/04/01 04:40:38;;;;;;;12.98;8.38;;;;;;;22.89;38.36;99613.58;1753136;79;22409;-15
2021/04/01 04:43:05;;;;;;;13.05;9.68;;;;;;;22.97;38.13;99619.14;1778919;78;21118;-14
2021/04/01 04:45:32;;;;;;;20.37;10.38;;;;;;;23.06;37.95;99613.98;1754590;79;21763;-14
2021/04/01 04:48:00;;;;;;;15.55;9.45;;;;;;;23.11;37.77;99608.60;1799533;78;21548;-16
2021/04/01 04:50:27;;;;;;;10.08;8.18;;;;;;;23.18;37.48;99603.09;1757014;79;21185;-15
2021/04/01 04:52:54;;;;;;;14.90;9.63;;;;;;;23.25;37.31;99605.23;1777648;78;21153;-14
2021/04/01 04:55:22;;;;;;;9.33;7.83;;;;;;;23.29;37.15;99609.36;1779054;77;21073;-14
2021/04/01 05:00:37;;;;;;;15.55;9.48;;;;;;;23.35;36.85;99605.66;1794622;79;21188;-17
2021/04/01 05:05:35;;;;;;;19.73;12.07;;;;;;;23.36;36.42;99603.31;1808232;79;21542;-14
2021/04/01 05:08:03;;;;;;;18.35;11.78;;;;;;;23.25;36.32;99594.48;1772541;79;21168;-14
2021/04/01 05:10:31;;;;;;;17.27;12.13;;;;;;;23.14;36.59;99592.24;1773394;78;21141;-18
2021/04/01 05:13:08;;;;;;;20.08;12.03;;;;;;;23.02;36.93;99593.27;1743490;78;21573;-15
2021/04/01 05:15:28;;;;;;;15.28;10.70;;;;;;;22.91;36.99;99590.14;1779002;78;21200;-14
2021/04/01 05:18:06;;;;;;;20.27;11.97;;;;;;;22.79;37.47;99585.83;1783668;78;21278;-14
2021/04/01 05:20:25;;;;;;;18.12;12.05;;;;;;;22.70;37.57;99590.64;1740522;79;21146;-15
2021/04/01 05:22:57;;;;;;;16.35;11.48;;;;;;;22.58;37.62;99592.03;1743726;79;21137;-15
2021/04/01 05:25:23;;;;;;;21.50;11.83;;;;;;;22.48;37.77;99587.07;1777606;78;21509;-13
2021/04/01 05:27:55;;;;;;;15.50;10.72;;;;;;;22.42;38.25;99591.09;1777335;79;21706;-16
2021/04/01 05:30:21;;;;;;;15.53;10.48;;;;;;;22.42;38.44;99588.91;1743358;79;21148;-14
2021/04/01 05:32:48;;;;;;;16.05;12.03;;;;;;;22.40;38.55;99588.20;1776762;79;21642;-15
2021/04/01 05:35:16;;;;;;;17.30;11.30;;;;;;;22.42;38.32;99585.73;1770331;79;21173;-16
2021/04/01 05:37:44;;;;;;;14.90;11.85;;;;;;;22.42;38.18;99582.20;1771189;78;21568;-14
2021/04/01 05:40:15;;;;;;;18.10;11.45;;;;;;;22.39;38.00;99578.44;1740733;79;21157;-14
2021/04/01 05:42:47;;;;;;;16.93;10.78;;;;;;;22.37;38.00;99581.74;1777312;78;21192;-16
2021/04/01 05:45:25;;;;;;;15.53;11.60;;;;;;;22.35;37.91;99583.20;1782514;78;21564;-15
2021/04/01 05:47:55;;;;;;;23.77;12.33;;;;;;;22.36;37.76;99578.69;1760062;79;21154;-14
2021/04/01 05:56:33;;;;;;;34.20;22.15;;;;;;;22.30;37.17;99569.34;1776457;79;21205;-15
2021/04/01 06:02:19;;;;;;;46.55;29.15;;;;;;;22.19;37.54;99568.86;1778002;79;21179;-14
2021/04/01 06:04:10;;;;;;;31.77;21.35;;;;;;;22.18;37.42;99573.84;1760810;78;21188;-14
2021/04/01 06:06:53;;;;;;;29.42;20.35;;;;;;;22.23;37.72;99570.80;1749852;79;21134;-17
2021/04/01 06:09:26;;;;;;;32.28;19.35;;;;;;;22.33;37.72;99568.24;1776877;78;21263;-15
2021/04/01 06:11:55;;;;;;;22.98;16.82;;;;;;;22.47;37.70;99571.11;1771324;79;21196;-15
2021/04/01 06:14:46;;;;;;;31.25;17.32;;;;;;;22.59;37.69;99566.05;1749575;79;21189;-15
2021/04/01 06:17:14;;;;;;;26.52;16.07;;;;;;;22.70;37.60;99561.98;1775227;78;21125;-17
2021/04/01 06:19:42;;;;;;;23.65;16.00;;;;;;;22.85;37.52;99558.49;1753845;81;21208;-15
2021/04/01 06:22:12;;;;;;;24.32;15.63;;;;;;;22.96;37.40;99553.53;1789079;79;21870;-17
2021/04/01 06:24:39;;;;;;;24.65;14.93;;;;;;;23.07;37.35;99555.34;1786469;78;21604;-17
2021/04/01 06:27:21;;;;;;;21.17;14.55;;;;;;;23.15;37.28;99549.67;1775246;79;21188;-15
2021/04/01 06:32:53;;;;;;;21.23;13.60;;;;;;;23.35;37.04;99549.28;1801863;79;21215;-14
2021/04/01 06:35:31;;;;;;;21.20;13.25;;;;;;;23.49;36.96;99549.91;1778775;79;21219;-14
2021/04/01 06:40:48;;;;;;;24.05;16.35;;;;;;;23.62;36.38;99550.52;1757790;79;21198;-17
2021/04/01 06:43:47;;;;;;;22.85;15.43;;;;;;;23.60;36.25;99538.20;1774733;78;21208;-14
2021/04/01 06:46:12;;;;;;;24.00;14.95;;;;;;;23.56;36.09;99542.99;1763158;79;21189;-17
2021/04/01 06:51:30;;;;;;;19.20;14.15;;;;;;;23.48;36.01;99540.14;1829103;76;22692;-14
2021/04/01 06:59:42;;;;;;;20.80;13.28;;;;;;;23.24;35.98;99541.30;1745845;79;21192;-13
2021/04/01 07:02:32;;;;;;;21.37;13.08;;;;;;;23.24;35.97;99530.56;1767857;80;21283;-14
2021/04/01 07:05:20;;;;;;;18.57;11.97;;;;;;;23.20;36.15;99530.48;1732063;81;21612;-17
2021/04/01 07:07:45;;;;;;;20.25;11.43;;;;;;;23.17;36.30;99529.41;1713980;80;21647;-15
2021/04/01 07:12:51;;;;;;;17.02;10.50;;;;;;;23.25;36.49;99533.63;1741333;80;20990;-14
2021/04/01 07:15:24;;;;;;;17.07;10.98;;;;;;;23.35;36.49;99526.92;1738608;80;21141;-14
2021/04/01 07:17:58;;;;;;;13.68;10.32;;;;;;;23.44;36.48;99521.27;1758069;80;21033;-14
2021/04/01 07:48:06;;;;;;;10.25;8.30;;;;;;;24.37;35.74;99495.84;1689441;83;21220;-15
2021/04/01 07:50:43;;;;;;;13.32;8.08;;;;;;;24.43;35.66;99499.31;1708311;83;21216;-14
2021/04/01 07:53:14;;;;;;;15.20;8.48;;;;;;;24.49;35.84;99491.16;1704235;81;21145;-15
2021/04/01 07:56:03;;;;;;;21.30;10.90;;;;;;;24.57;36.00;99487.29;1720177;83;22129;-15
2021/04/01 08:03:55;;;;;;;20.05;9.85;;;;;;;24.54;35.02;99489.39;1679467;83;21240;-17
2021/04/01 08:06:29;;;;;;;14.65;8.63;;;;;;;24.50;35.28;99483.95;1695744;81;21149;-17
2021/04/01 08:09:05;;;;;;;17.02;8.75;;;;;;;24.47;35.30;99472.97;1702601;83;21144;-18
2021/04/01 08:11:37;;;;;;;;;;;;;;;24.48;35.33;99478.22;1712443;83;21581;-15
2021/04/01 08:14:10;;;;;;;13.68;8.93;;;;;;;24.50;35.28;99473.20;1684849;83;20544;-15
2021/04/01 08:16:45;;;;;;;17.27;8.93;;;;;;;24.50;35.16;99471.86;1706312;81;21201;-16
2021/04/01 08:19:12;;;;;;;16.27;9.08;;;;;;;24.50;35.16;99467.82;1699422;82;21201;-15
2021/04/01 08:21:42;;;;;;;14.07;9.08;;;;;;;24.50;35.04;99462.44;1690171;81;21185;-14
2021/04/01 08:24:18;;;;;;;11.33;8.88;;;;;;;24.51;34.97;99460.09;1682248;82;21118;-16
2021/04/01 08:27:01;;;;;;;12.28;8.30;;;;;;;24.51;35.02;99454.70;1709882;82;21157;-15
2021/04/01 08:32:12;;;;;;;10.20;7.20;;;;;;;24.60;35.07;99453.89;1702045;81;21584;-15
2021/04/01 08:34:37;;;;;;;10.78;6.90;;;;;;;24.65;35.04;99444.37;1676923;84;21161;-17
2021/04/01 08:37:06;;;;;;;12.90;7.53;;;;;;;24.74;34.99;99439.95;1684089;81;21065;-18
2021/04/01 08:39:36;;;;;;;12.58;6.83;;;;;;;24.81;34.91;99437.05;1693493;81;21624;-15
2021/04/01 08:42:11;;;;;;;18.17;7.40;;;;;;;24.89;34.85;99439.50;1689199;81;21171;-14
2021/04/01 08:45:11;;;;;;;12.60;7.08;;;;;;;24.94;34.76;99429.98;1702870;81;21205;-16
2021/04/01 08:48:32;;;;;;;11.55;7.72;;;;;;;25.01;34.72;99431.08;1697102;81;21287;-14
2021/04/01 08:51:09;;;;;;;11.10;7.83;;;;;;;25.09;34.65;99426.31;1695472;81;21129;-15
2021/04/01 08:54:04;;;;;;;12.95;6.97;;;;;;;25.17;34.54;99414.30;1700552;81;21574;-13
2021/04/01 08:56:47;;;;;;;8.58;6.60;;;;;;;25.22;34.50;99417.90;1701827;83;21148;-14
2021/04/01 08:59:46;;;;;;;10.13;7.17;;;;;;;25.28;34.43;99416.47;1736370;80;21121;-15
2021/04/01 09:02:18;;;;;;;11.30;7.17;;;;;;;25.32;34.41;99412.50;1771730;79;22659;-18
2021/04/01 09:04:52;;;;;;;11.65;6.78;;;;;;;25.37;34.37;99410.20;1729674;80;21208;-19
2021/04/01 09:07:30;;;;;;;10.45;7.60;;;;;;;25.40;34.30;99406.70;1742695;79;21137;-18
2021/04/01 09:10:14;;;;;;;11.43;7.75;;;;;;;25.44;34.27;99407.23;1765855;80;21199;-17
2021/04/01 09:15:40;;;;;;;10.93;8.60;;;;;;;25.57;34.10;99392.91;1758472;78;28303;-16
2021/04/01 09:18:07;;;;;;;10.10;8.08;;;;;;;25.58;34.00;99393.74;1758655;79;21174;-15
2021/04/01 09:20:36;;;;;;;9.58;7.37;;;;;;;25.66;33.94;99390.30;1755287;79;21232;-17
2021/04/01 09:23:06;;;;;;;11.03;8.28;;;;;;;25.69;33.82;99388.14;1703689;80;21224;-18
2021/04/01 09:25:41;;;;;;;11.80;7.78;;;;;;;25.74;33.76;99382.30;1751707;79;21243;-15
2021/04/01 09:28:09;;;;;;;11.15;8.08;;;;;;;25.78;33.63;99376.93;1771811;78;21168;-18
2021/04/01 09:30:37;;;;;;;11.38;8.13;;;;;;;25.82;33.70;99382.85;1788193;79;21584;-17
2021/04/01 09:33:18;;;;;;;11.43;7.87;;;;;;;25.83;33.69;99375.96;1782661;79;21236;-17
2021/04/01 09:35:44;;;;;;;14.53;7.95;;;;;;;25.87;33.64;99372.45;1765443;80;21635;-17
2021/04/01 09:38:12;;;;;;;9.98;7.35;;;;;;;25.90;33.56;99366.25;1746118;79;21176;-16
2021/04/01 09:40:44;;;;;;;12.80;7.55;;;;;;;25.95;33.46;99366.66;1686285;81;21952;-14
2021/04/01 09:43:21;;;;;;;14.40;8.25;;;;;;;25.98;33.42;99368.20;1679100;83;21213;-14
2021/04/01 09:45:51;;;;;;;16.35;10.55;;;;;;;26.01;33.37;99367.03;1708084;81;21222;-15
2021/04/01 09:48:26;;;;;;;15.18;9.20;;;;;;;26.05;33.21;99359.00;1732224;80;21636;-17
2021/04/01 09:50:59;;;;;;;17.30;9.75;;;;;;;26.08;32.89;99351.95;1711352;80;21623;-15
2021/04/01 09:53:24;;;;;;;18.35;9.23;;;;;;;26.11;32.55;99352.98;1725485;80;21231;-15
2021/04/01 09:55:55;;;;;;;15.05;9.30;;;;;;;26.12;32.32;99351.45;1718849;80;21120;-15
2021/04/01 09:58:32;;;;;;;14.85;9.05;;;;;;;26.15;32.24;99347.61;1692685;82;21185;-16
2021/04/01 10:03:57;;;;;;;10.88;7.70;;;;;;;26.19;31.80;99342.23;1683318;83;21932;-15
2021/04/01 10:06:35;;;;;;;12.85;8.30;;;;;;;26.21;31.75;99340.73;1655420;84;21173;-14
2021/04/01 10:09:18;;;;;;;15.40;7.97;;;;;;;26.23;31.26;99330.14;1707112;82;21239;-15
2021/04/01 10:12:00;;;;;;;15.55;8.43;;;;;;;26.24;31.51;99327.80;1704551;81;21478;-15
2021/04/01 10:14:28;;;;;;;10.93;7.42;;;;;;;26.27;31.44;99331.50;1718861;81;21128;-17
2021/04/01 10:17:09;;;;;;;12.35;7.47;;;;;;;26.31;31.22;99330.70;1729813;82;21167;-15
2021/04/01 10:19:41;;;;;;;21.55;6.87;;;;;;;26.33;31.03;99321.44;1701030;82;21195;-15
2021/04/01 10:22:28;;;;;;;12.70;7.40;;;;;;;26.39;30.75;99322.64;1729573;81;21561;-15
2021/04/01 10:28:02;;;;;;;9.88;6.15;;;;;;;26.47;30.71;99313.76;1703794;82;21277;-15
2021/04/01 10:30:32;;;;;;;15.90;7.17;;;;;;;26.51;30.34;99304.32;1716567;82;21223;-15
2021/04/01 10:33:13;;;;;;;;;;;;;;;26.54;29.14;99301.31;1717759;82;22498;-15
2021/04/01 10:35:42;;;;;;;9.65;6.12;;;;;;;26.43;28.59;99294.36;1683402;82;20290;-16
2021/04/01 10:38:12;;;;;;;13.65;6.33;;;;;;;26.36;29.39;99293.80;1694980;82;21189;-15
2021/04/01 10:40:40;;;;;;;13.88;6.62;;;;;;;26.39;29.35;99292.13;1693181;82;21541;-16
2021/04/01 10:43:09;;;;;;;11.20;5.80;;;;;;;26.44;29.28;99288.45;1703838;83;21200;-15
2021/04/01 10:45:40;;;;;;;11.08;5.62;;;;;;;26.47;28.89;99276.83;1721204;81;21195;-17
2021/04/01 10:48:36;;;;;;;10.75;5.10;;;;;;;26.49;28.60;99277.53;1694357;83;21189;-15
2021/04/01 10:51:10;;;;;;;9.30;5.47;;;;;;;26.52;28.28;99280.39;1643821;82;21227;-18
2021/04/01 10:53:41;;;;;;;7.30;5.17;;;;;;;26.54;28.09;99270.80;1704473;83;21173;-16
2021/04/01 10:56:11;;;;;;;9.95;5.30;;;;;;;26.54;28.16;99263.53;1680944;84;21219;-16
2021/04/01 10:58:53;;;;;;;10.45;5.25;;;;;;;26.57;28.14;99265.91;1704416;83;22261;-14
2021/04/01 11:01:23;;;;;;;12.58;5.03;;;;;;;26.59;28.15;99259.84;1723069;81;21197;-18
2021/04/01 11:03:54;;;;;;;14.33;5.35;;;;;;;26.61;28.08;99247.06;1691545;83;21197;-16
2021/04/01 11:06:22;;;;;;;7.17;5.20;;;;;;;26.63;28.02;99232.92;1709020;82;21219;-15
2021/04/01 11:08:50;;;;;;;10.90;5.55;;;;;;;26.68;27.90;99248.63;1696688;84;21207;-16
2021/04/01 11:11:18;;;;;;;9.35;4.92;;;;;;;26.71;27.93;99236.66;1697457;83;21180;-15
2021/04/01 11:13:46;;;;;;;10.08;4.90;;;;;;;26.73;28.12;99238.19;1656671;82;21224;-15
2021/04/01 11:16:15;;;;;;;10.60;5.40;;;;;;;26.76;28.11;99231.60;1679256;84;21189;-15
2021/04/01 11:18:46;;;;;;;10.98;4.90;;;;;;;26.78;28.03;99232.28;1692699;83;21216;-15
2021/04/01 11:21:15;;;;;;;15.88;4.85;;;;;;;26.81;28.22;99214.41;1687473;83;21636;-16
2021/04/01 11:23:44;;;;;;;14.83;4.87;;;;;;;26.83;28.31;99218.64;1687896;82;21154;-15
2021/04/01 11:26:11;;;;;;;8.68;4.80;;;;;;;26.84;28.29;99216.27;1689955;81;21157;-14
2021/04/01 11:31:31;;;;;;;10.98;4.83;;;;;;;26.94;28.05;99207.19;1808006;76;22701;-14
2021/04/01 11:34:01;;;;;;;9.13;5.80;;;;;;;26.93;28.11;99216.28;1785285;78;21121;-15
2021/04/01 11:36:37;;;;;;;7.67;4.83;;;;;;;26.93;27.72;99211.72;1785499;79;21195;-15
2021/04/01 11:39:03;;;;;;;9.00;5.30;;;;;;;26.91;27.45;99205.66;1788446;77;21125;-17
2021/04/01 11:41:31;;;;;;;6.72;4.92;;;;;;;26.85;27.27;99199.08;1784366;78;21624;-16
2021/04/01 11:44:00;;;;;;;11.88;5.35;;;;;;;26.79;27.30;99197.03;1762194;78;21164;-16
2021/04/01 11:46:30;;;;;;;8.80;5.00;;;;;;;26.73;27.20;99187.40;1787716;78;21205;-16
2021/04/01 11:48:59;;;;;;;12.13;6.67;;;;;;;26.66;27.28;99180.47;1789551;78;21193;-16
2021/04/01 11:51:30;;;;;;;10.08;6.20;;;;;;;26.63;27.37;99182.14;1770375;79;21220;-15
2021/04/01 11:53:57;;;;;;;6.60;5.10;;;;;;;26.62;27.42;99180.44;1786689;77;21189;-15
2021/04/01 11:56:40;;;;;;;10.05;5.15;;;;;;;26.60;27.36;99180.59;1789985;78;21144;-18
2021/04/01 11:59:12;;;;;;;9.98;4.97;;;;;;;26.57;27.10;99171.48;1776524;77;21159;-15
2021/04/01 12:01:55;;;;;;;10.68;5.85;;;;;;;26.55;27.07;99170.80;1790701;78;21146;-16
2021/04/01 12:04:24;;;;;;;11.45;5.42;;;;;;;26.51;27.35;99166.73;1738637;81;21195;-15
2021/04/01 12:06:54;;;;;;;11.75;5.28;;;;;;;26.49;27.66;99166.05;1734205;80;21160;-15
2021/04/01 12:09:22;;;;;;;8.55;5.03;;;;;;;26.47;27.32;99157.29;1746432;81;21244;-15
2021/04/01 12:11:51;;;;;;;6.05;5.05;;;;;;;26.45;27.33;99154.75;1755399;80;21133;-16
2021/04/01 12:14:19;;;;;;;12.85;5.90;;;;;;;26.44;27.19;99149.52;1760414;80;21201;-16
2021/04/01 12:16:48;;;;;;;11.90;5.17;;;;;;;26.39;27.02;99147.30;1757804;78;21224;-16
2021/04/01 12:19:18;;;;;;;10.40;5.55;;;;;;;26.33;27.13;99135.84;1759655;79;21627;-16
2021/04/01 12:21:45;;;;;;;9.60;5.83;;;;;;;26.31;27.85;99135.17;1733834;80;21254;-17
2021/04/01 12:24:13;;;;;;;9.98;5.80;;;;;;;26.30;28.67;99130.27;1691954;80;21218;-16
2021/04/01 12:26:47;;;;;;;12.47;5.85;;;;;;;26.33;29.43;99132.64;1734197;80;21194;-17
2021/04/01 12:29:14;;;;;;;8.73;5.83;;;;;;;26.40;30.00;99130.64;1735821;80;21132;-17
2021/04/01 12:34:31;;;;;;;8.08;5.50;;;;;;;26.55;30.27;99123.59;1829445;78;22777;-15
2021/04/01 12:37:03;;;;;;;8.70;5.50;;;;;;;26.58;30.26;99120.56;1771963;78;21120;-15
2021/04/01 12:39:34;;;;;;;7.28;5.45;;;;;;;26.64;30.23;99118.56;1792915;78;21181;-17
2021/04/01 12:42:03;;;;;;;8.15;5.58;;;;;;;26.71;30.22;99113.86;1793376;77;21196;-19
2021/04/01 12:44:38;;;;;;;13.28;6.35;;;;;;;26.76;29.93;99108.29;1752985;79;21164;-17
2021/04/01 12:47:06;;;;;;;10.25;5.92;;;;;;;26.80;29.66;99106.95;1757223;79;21786;-17
2021/04/01 12:49:36;;;;;;;13.65;5.70;;;;;;;26.84;29.56;99101.55;1762854;79;21182;-14
2021/04/01 12:52:07;;;;;;;8.33;5.58;;;;;;;26.89;29.43;99103.75;1764927;79;21160;-17
2021/04/01 12:54:38;;;;;;;9.25;4.80;;;;;;;26.92;29.44;99092.63;1757422;79;21726;-16
2021/04/01 12:57:14;;;;;;;6.53;5.42;;;;;;;26.96;29.50;99087.20;1793470;78;21152;-18
2021/04/01 12:59:50;;;;;;;9.70;5.17;;;;;;;27.00;29.55;99087.22;1754499;79;21623;-19
2021/04/01 13:05:01;;;;;;;6.87;4.95;;;;;;;27.10;29.67;99076.73;1809541;78;23099;-14
2021/04/01 13:12:42;;;;;;;9.55;4.80;;;;;;;27.11;29.82;99063.59;1774819;77;21238;-19
2021/04/01 13:15:13;;;;;;;9.05;4.95;;;;;;;27.13;29.89;99057.50;1779453;79;21184;-15
2021/04/01 13:17:42;;;;;;;6.12;4.75;;;;;;;27.15;29.94;99053.63;1787616;79;21518;-18
2021/04/01 13:20:13;;;;;;;8.40;5.00;;;;;;;27.18;30.01;99045.67;1744962;80;21160;-17
2021/04/01 13:25:26;;;;;;;15.35;8.75;;;;;;;27.22;29.19;99033.02;1796966;77;21168;-16
2021/04/01 13:27:53;;;;;;;24.52;11.43;;;;;;;27.23;27.83;99025.75;1789363;77;21198;-16